Time;durP1;ratioP1;P1;durP2;ratioP2;P2;SDS_P1;SDS_P2;PMS_P1;PMS_P2;Temp;Humidity;BMP_temperature;BMP_pressure;BME280_temperature;BME280_humidity;BME280_pressure;Samples;Min_cycle;Max_cycle;Signal;HPM_P1;HPM_P2
2021/08/22 00:00:52;;;;;;;2.15;0.70;;;;;;;16.60;69.70;99786.49;1732978;80;21094;-54
2021/08/22 00:03:19;;;;;;;1.20;0.90;;;;;;;16.57;69.69;99794.89;1735723;80;21233;-53
2021/08/22 00:05:46;;;;;;;0.68;0.68;;;;;;;16.53;69.69;99792.00;1749508;80;21027;-53
2021/08/22 00:08:13;;;;;;;4.83;0.70;;;;;;;16.50;69.76;99790.84;1745462;80;21090;-53
2021/08/22 00:10:39;;;;;;;2.05;0.55;;;;;;;16.47;69.81;99799.73;1748919;80;21145;-52
2021/08/22 00:13:06;;;;;;;0.70;0.60;;;;;;;16.43;70.02;99796.34;1746119;80;21140;-53
2021/08/22 00:17:56;;;;;;;0.73;0.70;;;;;;;16.48;70.20;99798.75;1790967;78;26547;-52
2021/08/22 00:20:23;;;;;;;1.12;0.70;;;;;;;16.44;70.27;99804.01;1765008;80;20989;-53
2021/08/22 00:22:49;;;;;;;3.17;0.70;;;;;;;16.46;70.27;99804.29;1764522;80;22088;-53
2021/08/22 00:25:16;;;;;;;0.95;0.70;;;;;;;16.47;70.29;99804.67;1771273;80;21132;-54
2021/08/22 00:27:42;;;;;;;0.72;0.70;;;;;;;16.47;70.27;99806.03;1765513;80;21477;-54
2021/08/22 00:30:10;;;;;;;1.90;0.70;;;;;;;16.47;70.25;99810.59;1771408;80;20870;-54
2021/08/22 00:32:36;;;;;;;0.62;0.60;;;;;;;16.47;70.27;99806.52;1770074;80;21003;-52
2021/08/22 00:35:03;;;;;;;0.55;0.50;;;;;;;16.47;70.28;99803.80;1773328;80;21444;-54
2021/08/22 00:37:29;;;;;;;2.47;0.60;;;;;;;16.48;70.30;99809.62;1769336;79;21432;-53
2021/08/22 00:39:58;;;;;;;1.10;0.60;;;;;;;16.49;70.31;99809.52;1769413;80;20923;-54
2021/08/22 00:42:28;;;;;;;4.60;0.70;;;;;;;16.52;70.32;99811.99;1775819;80;20911;-54
2021/08/22 00:44:54;;;;;;;1.07;0.60;;;;;;;16.51;70.26;99810.25;1709221;81;20901;-54
2021/08/22 00:47:21;;;;;;;1.15;0.70;;;;;;;16.51;70.25;99810.25;1700807;83;21460;-53
2021/08/22 00:49:47;;;;;;;2.17;0.70;;;;;;;16.50;70.24;99807.67;1743662;81;21006;-54
2021/08/22 00:52:14;;;;;;;2.45;0.60;;;;;;;16.48;70.25;99807.77;1717132;81;21001;-54
2021/08/22 00:54:42;;;;;;;0.42;0.42;;;;;;;16.46;70.27;99815.16;1709343;81;21148;-54
2021/08/22 00:57:10;;;;;;;1.57;0.70;;;;;;;16.45;70.30;99809.83;1709163;82;21108;-53
2021/08/22 00:59:38;;;;;;;1.25;0.60;;;;;;;16.43;70.36;99811.28;1713022;81;21835;-53
2021/08/22 01:02:04;;;;;;;1.35;0.80;;;;;;;16.43;70.42;99809.92;1735408;81;21481;-54
2021/08/22 01:04:42;;;;;;;2.35;0.68;;;;;;;16.44;70.47;99814.88;1733326;81;21104;-53
2021/08/22 01:07:22;;;;;;;1.30;0.70;;;;;;;16.43;70.44;99815.36;1711865;82;20982;-54
2021/08/22 01:09:49;;;;;;;0.75;0.70;;;;;;;16.42;70.46;99824.48;1683939;81;21166;-55
2021/08/22 01:12:30;;;;;;;0.70;0.70;;;;;;;16.38;70.46;99824.34;1736004;81;21061;-54
2021/08/22 01:15:03;;;;;;;3.42;0.70;;;;;;;16.35;70.53;99824.55;1735600;81;21042;-53
2021/08/22 01:17:32;;;;;;;1.87;0.53;;;;;;;16.32;70.55;99833.42;1689651;83;20900;-53
2021/08/22 01:20:18;;;;;;;2.35;0.60;;;;;;;16.29;70.66;99834.50;1751332;80;21036;-53
2021/08/22 01:22:46;;;;;;;2.47;0.60;;;;;;;16.26;70.76;99836.93;1755461;80;21081;-54
2021/08/22 01:25:12;;;;;;;1.27;0.60;;;;;;;16.25;70.84;99839.75;1757137;80;21564;-53
2021/08/22 01:27:39;;;;;;;0.70;0.70;;;;;;;16.24;70.89;99842.98;1705763;82;21517;-54
2021/08/22 01:30:16;;;;;;;1.42;0.70;;;;;;;16.22;70.98;99844.06;1757942;80;21561;-54
2021/08/22 01:32:43;;;;;;;2.77;0.70;;;;;;;16.21;71.05;99835.52;1753411;80;21568;-53
2021/08/22 01:35:12;;;;;;;1.70;0.62;;;;;;;16.21;71.11;99843.67;1760826;80;22088;-54
2021/08/22 01:37:40;;;;;;;0.68;0.60;;;;;;;16.19;71.17;99838.83;1751605;80;21260;-55
2021/08/22 01:40:09;;;;;;;3.00;0.68;;;;;;;16.17;71.25;99841.64;1756461;80;21093;-54
2021/08/22 01:42:35;;;;;;;0.98;0.60;;;;;;;16.17;71.36;99843.48;1756625;80;21500;-54
2021/08/22 01:45:05;;;;;;;1.05;0.82;;;;;;;16.17;71.41;99851.64;1756047;80;21026;-54
2021/08/22 01:47:31;;;;;;;0.60;0.50;;;;;;;16.16;71.43;99847.21;1693259;82;21360;-55
2021/08/22 01:49:57;;;;;;;2.15;0.60;;;;;;;16.15;71.44;99840.91;1694487;82;21115;-55
2021/08/22 01:52:24;;;;;;;0.78;0.70;;;;;;;16.14;71.45;99848.67;1755670;80;20976;-54
2021/08/22 01:54:50;;;;;;;0.90;0.75;;;;;;;16.13;71.44;99846.05;1754442;80;21349;-55
2021/08/22 01:57:17;;;;;;;1.10;0.80;;;;;;;16.11;71.41;99850.23;1752403;80;21512;-55
2021/08/22 01:59:44;;;;;;;3.42;0.80;;;;;;;16.10;71.43;99848.97;1698396;82;21055;-55
2021/08/22 02:02:11;;;;;;;1.27;0.60;;;;;;;16.06;71.39;99851.53;1749457;80;21725;-55
2021/08/22 02:04:49;;;;;;;0.60;0.55;;;;;;;16.03;71.36;99844.95;1755744;80;21054;-55
2021/08/22 02:07:21;;;;;;;0.50;0.50;;;;;;;15.99;71.45;99845.63;1753224;80;21173;-55
2021/08/22 02:10:19;;;;;;;1.40;0.50;;;;;;;15.96;71.52;99840.44;1751537;80;21369;-55
2021/08/22 02:12:47;;;;;;;1.40;0.70;;;;;;;15.94;71.55;99840.15;1755969;80;20945;-54
2021/08/22 02:15:22;;;;;;;1.05;0.70;;;;;;;15.88;71.52;99843.68;1753222;80;21057;-55
2021/08/22 02:17:54;;;;;;;2.77;0.70;;;;;;;15.84;71.62;99846.20;1749990;80;21063;-55
2021/08/22 02:20:20;;;;;;;2.92;0.80;;;;;;;15.78;71.53;99850.70;1750834;81;20965;-55
2021/08/22 02:22:47;;;;;;;5.00;0.88;;;;;;;15.71;71.61;99850.74;1741896;81;21134;-55
2021/08/22 02:25:14;;;;;;;1.20;0.70;;;;;;;15.65;71.63;99853.84;1745474;80;21137;-55
2021/08/22 02:27:40;;;;;;;1.82;0.70;;;;;;;15.61;71.81;99855.05;1749229;81;22306;-55
2021/08/22 02:30:08;;;;;;;0.70;0.60;;;;;;;15.57;71.95;99856.20;1748811;81;21090;-54
2021/08/22 02:32:34;;;;;;;1.60;0.45;;;;;;;15.54;72.08;99855.08;1740147;80;21078;-55
2021/08/22 02:35:01;;;;;;;0.65;0.57;;;;;;;15.52;72.23;99865.13;1742232;81;21110;-55
2021/08/22 02:37:28;;;;;;;3.80;0.60;;;;;;;15.51;72.17;99859.30;1740161;80;22331;-55
2021/08/22 02:39:56;;;;;;;0.98;0.70;;;;;;;15.50;72.36;99861.15;1747548;80;21723;-55
2021/08/22 02:42:22;;;;;;;1.10;0.68;;;;;;;15.50;72.44;99862.98;1753304;81;22086;-55
2021/08/22 02:44:49;;;;;;;1.87;0.80;;;;;;;15.48;72.26;99860.89;1747818;80;21598;-55
2021/08/22 02:47:16;;;;;;;1.10;0.80;;;;;;;15.45;72.19;99867.38;1704115;83;21652;-55
2021/08/22 02:49:42;;;;;;;0.80;0.80;;;;;;;15.40;72.07;99861.85;1704806;82;21709;-55
2021/08/22 02:52:10;;;;;;;3.08;0.70;;;;;;;15.37;72.12;99863.44;1746272;81;21480;-55
2021/08/22 02:54:38;;;;;;;0.88;0.70;;;;;;;15.33;72.00;99868.17;1749362;80;21022;-55
2021/08/22 02:57:04;;;;;;;1.20;0.60;;;;;;;15.29;71.97;99868.49;1749427;81;21081;-55
2021/08/22 02:59:31;;;;;;;0.80;0.60;;;;;;;15.24;72.00;99868.78;1739957;81;21074;-55
2021/08/22 03:01:57;;;;;;;2.25;0.70;;;;;;;15.21;72.04;99869.00;1746058;80;21046;-55
2021/08/22 03:04:23;;;;;;;0.90;0.70;;;;;;;15.17;72.00;99868.80;1747798;81;22469;-55
2021/08/22 03:06:51;;;;;;;0.95;0.80;;;;;;;15.14;72.02;99872.57;1744591;80;21126;-55
2021/08/22 03:09:18;;;;;;;0.90;0.75;;;;;;;15.12;72.01;99873.66;1739589;81;21713;-55
2021/08/22 03:11:44;;;;;;;2.52;0.90;;;;;;;15.03;71.79;99883.27;1740826;80;21456;-55
2021/08/22 03:14:11;;;;;;;0.85;0.78;;;;;;;15.03;71.79;99883.27;1749850;81;21068;-55
2021/08/22 03:16:39;;;;;;;1.17;0.70;;;;;;;14.99;72.04;99878.98;1743531;80;21069;-54
2021/08/22 03:19:07;;;;;;;1.35;0.70;;;;;;;14.96;72.03;99882.41;1728952;81;21056;-55
2021/08/22 03:21:33;;;;;;;1.70;0.62;;;;;;;14.96;72.26;99887.82;1735423;81;21050;-55
2021/08/22 03:24:00;;;;;;;0.82;0.70;;;;;;;14.94;72.22;99877.08;1736033;82;21100;-55
2021/08/22 03:26:27;;;;;;;1.30;0.80;;;;;;;14.95;72.38;99877.47;1732931;82;21136;-55
2021/08/22 03:28:53;;;;;;;1.17;0.75;;;;;;;14.98;72.46;99885.86;1733178;80;22658;-55
2021/08/22 03:31:20;;;;;;;1.70;0.85;;;;;;;14.99;72.47;99886.25;1738154;82;21125;-55
2021/08/22 03:33:46;;;;;;;0.80;0.80;;;;;;;14.98;72.47;99885.38;1737386;82;20930;-55
2021/08/22 03:36:12;;;;;;;5.15;0.88;;;;;;;14.98;72.51;99881.80;1736296;81;21389;-55
2021/08/22 03:38:40;;;;;;;1.10;1.00;;;;;;;14.98;72.87;99877.73;1733803;80;20953;-55
2021/08/22 03:41:06;;;;;;;3.72;0.78;;;;;;;14.98;72.87;99877.73;1735701;80;21392;-54
2021/08/22 03:43:33;;;;;;;2.08;0.80;;;;;;;15.00;72.81;99881.22;1734201;82;21546;-55
2021/08/22 03:45:59;;;;;;;0.98;0.70;;;;;;;15.02;72.83;99885.58;1738345;82;20867;-55
2021/08/22 03:48:25;;;;;;;4.70;1.00;;;;;;;15.05;72.92;99884.52;1735354;81;20867;-55
2021/08/22 03:50:51;;;;;;;1.50;0.80;;;;;;;15.07;73.02;99891.56;1739982;81;20930;-55
2021/08/22 03:53:18;;;;;;;1.98;0.70;;;;;;;15.10;73.13;99892.73;1738467;82;21698;-55
2021/08/22 03:55:45;;;;;;;1.12;0.80;;;;;;;15.13;73.24;99895.74;1697289;82;21117;-55
2021/08/22 03:58:11;;;;;;;1.22;0.90;;;;;;;15.14;73.41;99898.33;1732007;82;21111;-55
2021/08/22 04:00:38;;;;;;;2.90;1.10;;;;;;;15.14;73.60;99895.61;1737255;81;21049;-55
2021/08/22 04:03:04;;;;;;;2.12;0.93;;;;;;;15.16;73.69;99898.23;1740389;82;21037;-54
2021/08/22 04:05:33;;;;;;;3.05;0.80;;;;;;;15.18;73.83;99900.37;1731141;80;21888;-55
2021/08/22 04:08:00;;;;;;;0.90;0.70;;;;;;;15.23;73.92;99895.50;1733574;82;21045;-55
2021/08/22 04:10:27;;;;;;;1.55;0.65;;;;;;;15.33;74.07;99902.08;1732330;82;21622;-55
2021/08/22 04:12:54;;;;;;;0.70;0.60;;;;;;;15.49;74.08;99898.73;1729510;80;21529;-55
2021/08/22 04:15:23;;;;;;;1.72;0.70;;;;;;;15.73;74.04;99903.08;1737571;80;21333;-55
2021/08/22 04:17:50;;;;;;;1.32;0.70;;;;;;;15.99;73.72;99893.14;1743134;80;20950;-55
2021/08/22 04:20:17;;;;;;;0.80;0.72;;;;;;;16.26;73.17;99902.60;1756529;80;21283;-55
2021/08/22 04:22:43;;;;;;;0.93;0.80;;;;;;;16.46;72.49;99903.94;1758153;80;21539;-55
2021/08/22 04:25:11;;;;;;;2.27;0.72;;;;;;;16.59;71.99;99895.30;1752524;80;21117;-55
2021/08/22 04:27:39;;;;;;;1.42;0.80;;;;;;;16.68;71.49;99897.88;1752250;80;21044;-55
2021/08/22 04:30:08;;;;;;;1.52;1.05;;;;;;;16.72;71.13;99895.34;1754355;80;21085;-55
2021/08/22 04:32:36;;;;;;;0.88;0.80;;;;;;;16.76;70.94;99910.47;1752673;80;21090;-54
2021/08/22 04:35:04;;;;;;;1.10;0.70;;;;;;;16.78;70.79;99902.56;1749879;80;21798;-54
2021/08/22 04:37:30;;;;;;;4.28;1.00;;;;;;;16.82;70.69;99908.18;1752176;80;21026;-54
2021/08/22 04:39:59;;;;;;;11.90;1.42;;;;;;;16.87;70.75;99915.50;1752953;80;21077;-54
2021/08/22 04:42:25;;;;;;;6.20;1.10;;;;;;;16.93;71.90;99912.82;1758646;80;22057;-54
2021/08/22 04:44:51;;;;;;;1.32;0.68;;;;;;;16.95;71.54;99913.59;1758825;80;21826;-51
2021/08/22 04:47:19;;;;;;;2.87;0.88;;;;;;;16.99;71.56;99917.36;1750677;80;21830;-52
2021/08/22 04:49:45;;;;;;;0.80;0.70;;;;;;;17.06;71.67;99920.50;1696807;82;21177;-52
2021/08/22 04:52:15;;;;;;;1.00;0.90;;;;;;;17.14;71.52;99924.02;1756405;80;21045;-52
2021/08/22 04:54:41;;;;;;;2.58;0.80;;;;;;;17.20;71.52;99922.20;1752128;80;22237;-51
2021/08/22 04:57:08;;;;;;;3.30;0.80;;;;;;;17.25;71.31;99916.83;1754367;80;21433;-52
2021/08/22 04:59:35;;;;;;;0.85;0.70;;;;;;;17.29;71.37;99916.97;1751794;80;20998;-51
2021/08/22 05:02:01;;;;;;;1.90;0.75;;;;;;;17.35;71.12;99926.03;1750492;80;21507;-52
2021/08/22 05:04:29;;;;;;;3.25;0.75;;;;;;;17.40;70.81;99922.50;1721133;82;21535;-51
2021/08/22 05:06:55;;;;;;;1.62;0.60;;;;;;;17.44;70.51;99928.56;1753459;80;21599;-52
2021/08/22 05:09:21;;;;;;;1.65;0.70;;;;;;;17.47;70.30;99927.48;1762357;80;21082;-52
2021/08/22 05:11:49;;;;;;;1.17;0.88;;;;;;;17.49;70.16;99927.75;1753691;80;21128;-52
2021/08/22 05:14:16;;;;;;;0.80;0.70;;;;;;;17.50;69.80;99925.91;1752829;80;21054;-51
2021/08/22 05:16:42;;;;;;;0.88;0.62;;;;;;;17.53;69.86;99925.16;1755474;80;21086;-52
2021/08/22 05:19:08;;;;;;;1.37;0.80;;;;;;;17.57;69.43;99922.61;1749330;80;21139;-52
2021/08/22 05:21:35;;;;;;;1.12;0.60;;;;;;;17.61;69.00;99921.88;1753461;80;21090;-52
2021/08/22 05:24:01;;;;;;;1.62;0.53;;;;;;;17.67;68.53;99921.47;1754474;80;21267;-51
2021/08/22 05:26:27;;;;;;;1.60;0.55;;;;;;;17.74;68.23;99928.19;1757086;80;21395;-51
2021/08/22 05:28:55;;;;;;;1.22;0.60;;;;;;;17.77;67.64;99918.44;1753239;80;21716;-52
2021/08/22 05:31:21;;;;;;;1.27;0.50;;;;;;;17.78;67.53;99920.15;1757828;80;21101;-52
2021/08/22 05:33:47;;;;;;;1.00;0.53;;;;;;;17.82;67.28;99924.39;1719813;82;21053;-52
2021/08/22 05:36:18;;;;;;;0.55;0.47;;;;;;;17.86;66.97;99924.56;1756250;80;21062;-52
2021/08/22 05:38:46;;;;;;;0.80;0.70;;;;;;;17.93;66.77;99926.32;1752947;80;21066;-52
2021/08/22 05:41:12;;;;;;;3.40;0.70;;;;;;;18.01;66.40;99929.33;1738206;80;21081;-51
2021/08/22 05:43:39;;;;;;;1.52;0.60;;;;;;;18.09;66.00;99929.61;1755153;80;21765;-51
2021/08/22 05:46:06;;;;;;;0.78;0.60;;;;;;;18.12;65.70;99922.55;1755543;80;21054;-52
2021/08/22 05:48:33;;;;;;;1.12;0.50;;;;;;;18.18;65.80;99928.03;1752021;79;21316;-52
2021/08/22 05:51:01;;;;;;;1.17;0.45;;;;;;;18.26;65.82;99929.67;1739328;80;21062;-52
2021/08/22 05:53:29;;;;;;;2.35;0.50;;;;;;;18.36;65.70;99934.80;1752548;80;21125;-50
2021/08/22 05:55:56;;;;;;;1.05;0.50;;;;;;;18.45;64.81;99932.72;1755650;80;21474;-52
2021/08/22 05:58:23;;;;;;;1.80;0.68;;;;;;;18.54;64.46;99933.37;1751603;80;21673;-52
2021/08/22 06:00:49;;;;;;;3.75;0.60;;;;;;;18.60;63.80;99936.14;1757670;80;20926;-52
2021/08/22 06:03:16;;;;;;;4.30;1.02;;;;;;;18.67;63.54;99934.66;1757664;80;22085;-52
2021/08/22 06:05:43;;;;;;;0.60;0.55;;;;;;;18.74;63.20;99936.78;1756622;80;21419;-51
2021/08/22 06:08:09;;;;;;;1.40;0.60;;;;;;;18.80;62.81;99932.69;1755086;80;22195;-52
2021/08/22 06:10:35;;;;;;;0.60;0.50;;;;;;;18.86;62.62;99928.12;1760981;80;21594;-52
2021/08/22 06:13:03;;;;;;;1.17;0.80;;;;;;;18.90;62.54;99934.56;1752679;80;21094;-52
2021/08/22 06:15:30;;;;;;;1.00;0.60;;;;;;;18.96;62.57;99938.69;1752141;80;21031;-52
2021/08/22 06:17:56;;;;;;;0.70;0.60;;;;;;;19.02;62.70;99933.22;1720930;82;21065;-52
2021/08/22 06:20:22;;;;;;;0.78;0.55;;;;;;;19.06;62.38;99935.56;1756675;80;21121;-53
2021/08/22 06:22:49;;;;;;;0.80;0.60;;;;;;;19.11;62.28;99936.58;1758963;80;21108;-52
2021/08/22 06:25:15;;;;;;;1.55;0.78;;;;;;;19.17;62.13;99935.58;1752986;80;21054;-52
2021/08/22 06:27:41;;;;;;;0.95;0.57;;;;;;;19.21;61.83;99934.36;1751629;80;21085;-53
2021/08/22 06:30:09;;;;;;;0.78;0.50;;;;;;;19.24;61.32;99930.48;1757326;80;21112;-51
2021/08/22 06:32:35;;;;;;;1.42;0.60;;;;;;;19.27;61.21;99934.34;1719537;82;21112;-52
2021/08/22 06:35:02;;;;;;;1.40;0.50;;;;;;;19.29;60.31;99936.46;1760418;80;20940;-51
2021/08/22 06:37:28;;;;;;;0.85;0.60;;;;;;;19.33;60.08;99933.84;1758788;80;20907;-53
2021/08/22 06:39:55;;;;;;;0.60;0.50;;;;;;;19.38;59.24;99932.12;1757953;80;20916;-52
2021/08/22 06:42:21;;;;;;;0.90;0.50;;;;;;;19.42;58.90;99933.09;1760989;80;21527;-52
2021/08/22 06:44:47;;;;;;;2.52;0.60;;;;;;;19.45;58.61;99938.80;1756223;80;21580;-52
2021/08/22 06:47:13;;;;;;;3.25;0.47;;;;;;;19.47;58.24;99939.09;1757735;79;20887;-52
2021/08/22 06:49:41;;;;;;;2.00;0.50;;;;;;;19.51;57.90;99934.23;1756482;80;21475;-52
2021/08/22 06:52:08;;;;;;;1.42;0.57;;;;;;;19.54;58.05;99938.95;1754894;80;21723;-52
2021/08/22 06:54:34;;;;;;;0.50;0.40;;;;;;;19.57;57.52;99940.05;1752210;80;21041;-52
2021/08/22 06:57:00;;;;;;;0.70;0.50;;;;;;;19.60;57.46;99941.17;1757115;80;21119;-52
2021/08/22 06:59:27;;;;;;;1.00;0.40;;;;;;;19.62;57.46;99937.82;1753008;80;21086;-53
2021/08/22 07:01:53;;;;;;;0.93;0.57;;;;;;;19.65;57.22;99933.45;1714670;82;21082;-52
2021/08/22 07:04:19;;;;;;;0.60;0.40;;;;;;;19.71;57.15;99940.78;1753874;80;21216;-52
2021/08/22 07:06:45;;;;;;;1.10;0.40;;;;;;;19.77;56.89;99937.04;1758321;80;22581;-52
2021/08/22 07:09:12;;;;;;;1.92;0.40;;;;;;;19.84;56.98;99945.09;1757484;80;21153;-52
2021/08/22 07:11:38;;;;;;;5.80;1.02;;;;;;;19.88;56.29;99947.08;1750667;80;21476;-53
2021/08/22 07:14:06;;;;;;;1.05;0.40;;;;;;;19.93;55.79;99944.81;1754545;80;21553;-53
2021/08/22 07:16:34;;;;;;;0.70;0.40;;;;;;;19.99;55.48;99947.02;1760154;80;21093;-53
2021/08/22 07:19:01;;;;;;;1.95;0.40;;;;;;;20.02;55.31;99946.28;1755581;80;21428;-52
2021/08/22 07:21:27;;;;;;;1.40;0.40;;;;;;;20.08;54.74;99948.98;1754669;80;21523;-53
2021/08/22 07:23:54;;;;;;;1.95;0.23;;;;;;;20.14;54.15;99943.02;1754149;80;21060;-52
2021/08/22 07:26:21;;;;;;;5.95;0.40;;;;;;;20.22;53.40;99945.97;1750705;80;21101;-52
2021/08/22 07:28:47;;;;;;;0.35;0.30;;;;;;;20.23;53.01;99947.71;1757062;80;21410;-53
2021/08/22 07:31:15;;;;;;;0.60;0.30;;;;;;;20.27;53.41;99944.20;1754398;80;21913;-52
2021/08/22 07:33:41;;;;;;;0.70;0.30;;;;;;;20.31;53.31;99949.29;1756131;80;22289;-53
2021/08/22 07:36:07;;;;;;;1.80;0.40;;;;;;;20.42;53.72;99937.94;1756325;80;21324;-53
2021/08/22 07:38:34;;;;;;;0.60;0.40;;;;;;;20.51;54.17;99942.13;1753519;80;21113;-53
2021/08/22 07:41:00;;;;;;;0.68;0.30;;;;;;;20.62;53.64;99949.41;1755943;80;20922;-53
2021/08/22 07:43:27;;;;;;;3.00;0.20;;;;;;;20.71;53.50;99951.34;1756947;80;21034;-53
2021/08/22 07:45:53;;;;;;;0.95;0.20;;;;;;;20.79;52.90;99943.34;1753821;80;21144;-52
2021/08/22 07:48:19;;;;;;;0.50;0.25;;;;;;;20.89;52.04;99951.11;1754622;80;21085;-53
2021/08/22 07:50:46;;;;;;;0.25;0.20;;;;;;;20.95;51.98;99949.20;1751765;80;20974;-54
2021/08/22 07:53:16;;;;;;;0.30;0.20;;;;;;;21.02;51.75;99951.75;1749558;80;21673;-52
2021/08/22 07:55:42;;;;;;;0.95;0.30;;;;;;;21.08;51.12;99947.13;1751804;80;21093;-53
2021/08/22 07:58:09;;;;;;;1.17;0.30;;;;;;;21.14;50.82;99942.97;1754471;79;21131;-53
2021/08/22 08:00:35;;;;;;;1.50;0.30;;;;;;;21.18;50.54;99945.81;1748714;80;21075;-53
2021/08/22 08:03:01;;;;;;;0.30;0.30;;;;;;;21.21;50.02;99952.89;1752995;80;21053;-53
2021/08/22 08:05:28;;;;;;;3.90;0.20;;;;;;;21.23;49.33;99946.79;1749145;80;21092;-54
2021/08/22 08:07:55;;;;;;;0.28;0.23;;;;;;;21.24;49.26;99941.69;1752923;80;21067;-53
2021/08/22 08:10:21;;;;;;;0.60;0.30;;;;;;;21.24;49.36;99937.08;1749191;80;21720;-53
2021/08/22 08:12:47;;;;;;;0.30;0.20;;;;;;;21.28;49.30;99941.75;1752127;80;21142;-52
2021/08/22 08:15:14;;;;;;;0.95;0.30;;;;;;;21.35;49.84;99941.59;1752515;79;21075;-53
2021/08/22 08:17:40;;;;;;;0.40;0.30;;;;;;;21.41;49.09;99943.77;1753897;80;21110;-53
2021/08/22 08:20:08;;;;;;;1.20;0.30;;;;;;;21.46;49.20;99936.00;1757348;79;21085;-53
2021/08/22 08:22:34;;;;;;;0.40;0.20;;;;;;;21.53;49.22;99937.17;1758487;80;21106;-53
2021/08/22 08:25:01;;;;;;;0.20;0.20;;;;;;;21.58;48.88;99932.66;1758982;80;21030;-53
2021/08/22 08:27:27;;;;;;;0.40;0.30;;;;;;;21.67;48.61;99931.83;1758741;80;21534;-53
2021/08/22 08:29:54;;;;;;;3.17;0.30;;;;;;;21.71;47.47;99930.02;1764167;80;21475;-52
2021/08/22 08:32:20;;;;;;;6.10;0.30;;;;;;;21.78;47.68;99929.81;1758630;80;21061;-53
2021/08/22 08:34:48;;;;;;;0.20;0.20;;;;;;;21.82;48.02;99921.69;1759865;80;21024;-53
2021/08/22 08:37:15;;;;;;;1.77;0.25;;;;;;;21.89;47.94;99930.20;1765932;80;21085;-53
2021/08/22 08:39:42;;;;;;;0.28;0.20;;;;;;;21.94;47.57;99926.55;1760544;80;21058;-53
2021/08/22 08:42:34;;;;;;;0.45;0.30;;;;;;;21.98;47.11;99929.39;1759638;80;21531;-54
2021/08/22 08:45:00;;;;;;;0.30;0.28;;;;;;;22.05;47.56;99936.03;1761798;80;21135;-53
2021/08/22 08:47:27;;;;;;;2.20;0.30;;;;;;;22.16;47.42;99927.69;1762183;80;21206;-54
2021/08/22 08:50:17;;;;;;;2.05;0.30;;;;;;;22.30;48.50;99920.89;1765988;80;21383;-54
2021/08/22 08:53:11;;;;;;;0.50;0.30;;;;;;;22.41;47.82;99922.63;1762916;80;20945;-53
2021/08/22 08:55:54;;;;;;;0.35;0.20;;;;;;;22.51;47.57;99927.61;1763239;80;21251;-53
2021/08/22 08:58:21;;;;;;;0.82;0.30;;;;;;;22.52;46.94;99923.36;1766939;80;21120;-53
2021/08/22 09:00:48;;;;;;;1.77;0.30;;;;;;;22.53;47.43;99927.84;1760961;80;21270;-54
2021/08/22 09:03:16;;;;;;;0.60;0.30;;;;;;;22.55;46.90;99929.03;1724703;80;21050;-55
2021/08/22 09:06:14;;;;;;;0.57;0.20;;;;;;;22.57;46.62;99929.26;1726072;82;21102;-54
2021/08/22 09:09:38;;;;;;;0.40;0.30;;;;;;;22.57;46.14;99927.02;1723238;82;21164;-55
2021/08/22 09:12:33;;;;;;;1.40;0.30;;;;;;;22.58;45.14;99928.25;1760437;80;21081;-53
2021/08/22 09:15:43;;;;;;;1.00;0.20;;;;;;;22.51;45.26;99931.22;1761740;79;21886;-53
2021/08/22 09:19:01;;;;;;;0.55;0.20;;;;;;;22.53;44.99;99926.47;1717794;80;21608;-52
2021/08/22 09:22:01;;;;;;;0.45;0.20;;;;;;;22.51;44.86;99928.98;1766287;80;21051;-52
2021/08/22 09:24:51;;;;;;;0.20;0.17;;;;;;;22.55;45.45;99928.53;1690842;80;20970;-53
2021/08/22 09:27:48;;;;;;;0.42;0.20;;;;;;;22.58;45.63;99924.13;1763856;80;20926;-54
2021/08/22 09:31:11;;;;;;;0.30;0.20;;;;;;;22.65;45.50;99921.16;1769168;80;21038;-53
2021/08/22 09:34:27;;;;;;;0.95;0.30;;;;;;;22.68;45.10;99922.75;1685354;83;21019;-55
2021/08/22 09:37:11;;;;;;;1.65;0.20;;;;;;;22.75;45.26;99914.83;1690334;83;20925;-56
2021/08/22 09:40:16;;;;;;;0.30;0.20;;;;;;;22.90;45.32;99911.97;1764406;79;20887;-53
2021/08/22 09:43:37;;;;;;;0.30;0.20;;;;;;;23.05;44.29;99915.13;1731769;82;20924;-53
2021/08/22 09:46:50;;;;;;;0.20;0.20;;;;;;;23.10;43.20;99913.66;1763528;80;21752;-53
2021/08/22 09:50:17;;;;;;;0.50;0.30;;;;;;;23.10;42.64;99909.53;1764864;80;21081;-53
2021/08/22 09:53:43;;;;;;;1.67;0.20;;;;;;;23.18;44.11;99912.90;1765565;80;21054;-54
2021/08/22 09:56:45;;;;;;;;;;;;;;;23.30;43.41;99915.32;1762448;80;21104;-53
2021/08/22 09:59:46;;;;;;;0.42;0.20;;;;;;;23.39;43.58;99908.89;1762943;80;20596;-54
2021/08/22 10:02:36;;;;;;;1.07;0.28;;;;;;;23.48;43.01;99904.36;1727060;82;22234;-54
2021/08/22 10:05:25;;;;;;;1.85;0.30;;;;;;;23.61;42.84;99904.92;1756967;80;21098;-53
2021/08/22 10:08:12;;;;;;;0.37;0.28;;;;;;;23.71;42.72;99904.87;1761281;80;21582;-52
2021/08/22 10:10:48;;;;;;;0.30;0.30;;;;;;;23.72;42.28;99898.36;1763795;80;21152;-54
2021/08/22 10:13:15;;;;;;;1.65;0.30;;;;;;;23.70;43.07;99904.00;1759027;80;21038;-53
2021/08/22 10:15:44;;;;;;;0.50;0.30;;;;;;;23.70;43.06;99903.13;1758739;80;21507;-53
2021/08/22 10:18:11;;;;;;;0.20;0.20;;;;;;;23.67;42.59;99916.66;1733873;81;21068;-54
2021/08/22 10:20:42;;;;;;;1.30;0.20;;;;;;;23.58;41.73;99911.22;1761351;80;21033;-53
2021/08/22 10:23:43;;;;;;;0.30;0.20;;;;;;;23.49;41.53;99914.88;1756021;80;21052;-53
2021/08/22 10:26:11;;;;;;;0.60;0.30;;;;;;;23.42;41.57;99920.59;1719094;82;21379;-54
2021/08/22 10:29:00;;;;;;;0.40;0.20;;;;;;;23.31;41.40;99915.65;1753214;80;21100;-54
2021/08/22 10:31:54;;;;;;;0.42;0.20;;;;;;;23.32;41.41;99913.77;1749643;80;21156;-55
2021/08/22 10:34:27;;;;;;;1.17;0.30;;;;;;;23.34;41.53;99909.86;1754525;80;20993;-54
2021/08/22 10:36:54;;;;;;;0.50;0.20;;;;;;;23.43;42.05;99905.34;1718930;81;21508;-54
2021/08/22 10:39:26;;;;;;;0.35;0.20;;;;;;;23.49;41.64;99908.02;1756714;80;21948;-55
2021/08/22 10:42:01;;;;;;;0.75;0.20;;;;;;;23.53;40.17;99910.31;1752673;80;21205;-54
2021/08/22 10:44:40;;;;;;;0.70;0.20;;;;;;;23.60;38.81;99910.05;1755176;80;20840;-54
2021/08/22 10:47:21;;;;;;;0.20;0.15;;;;;;;23.62;38.94;99914.90;1753284;80;21805;-54
2021/08/22 10:49:56;;;;;;;0.70;0.20;;;;;;;23.65;39.37;99915.08;1755503;79;22349;-53
2021/08/22 10:52:28;;;;;;;0.20;0.20;;;;;;;23.68;39.52;99914.78;1753984;79;21062;-54
2021/08/22 10:55:20;;;;;;;0.20;0.20;;;;;;;23.74;40.24;99911.41;1755950;80;21500;-53
2021/08/22 10:57:50;;;;;;;0.53;0.30;;;;;;;23.80;40.74;99905.32;1750581;80;21605;-53
2021/08/22 11:00:33;;;;;;;0.85;0.30;;;;;;;23.90;40.70;99908.01;1755306;80;20942;-53
2021/08/22 11:03:04;;;;;;;0.47;0.20;;;;;;;23.99;41.07;99907.05;1756052;80;20915;-53
2021/08/22 11:05:36;;;;;;;0.53;0.20;;;;;;;24.02;40.17;99907.61;1751873;80;21113;-54
2021/08/22 11:08:18;;;;;;;1.42;0.30;;;;;;;24.02;39.95;99914.48;1750494;80;22587;-54
2021/08/22 11:10:57;;;;;;;0.30;0.20;;;;;;;23.97;38.56;99909.98;1752695;80;20958;-54
2021/08/22 11:13:29;;;;;;;0.30;0.20;;;;;;;23.87;38.38;99901.44;1755182;80;20907;-53
2021/08/22 11:16:05;;;;;;;0.55;0.20;;;;;;;23.76;37.81;99904.75;1751486;80;20998;-53
2021/08/22 11:18:33;;;;;;;1.37;0.20;;;;;;;23.66;38.37;99903.94;1752199;80;21142;-53
2021/08/22 11:20:59;;;;;;;0.20;0.20;;;;;;;23.61;38.88;99900.80;1753659;80;22791;-54
2021/08/22 11:23:25;;;;;;;0.30;0.20;;;;;;;23.56;39.11;99893.50;1752749;80;21638;-53
2021/08/22 11:26:05;;;;;;;0.45;0.20;;;;;;;23.52;39.32;99903.59;1715534;82;21157;-54
2021/08/22 11:28:32;;;;;;;0.85;0.30;;;;;;;23.47;39.49;99899.05;1756569;79;21224;-54
2021/08/22 11:30:58;;;;;;;0.37;0.20;;;;;;;23.42;39.46;99901.37;1753596;80;21277;-54
2021/08/22 11:33:29;;;;;;;0.20;0.20;;;;;;;23.38;39.79;99896.70;1753188;80;21135;-54
2021/08/22 11:35:57;;;;;;;0.33;0.20;;;;;;;23.38;39.35;99896.70;1754492;80;21521;-54
2021/08/22 11:38:23;;;;;;;1.55;0.20;;;;;;;23.39;39.16;99896.52;1718584;82;21479;-54
2021/08/22 11:40:53;;;;;;;0.82;0.25;;;;;;;23.43;38.84;99898.98;1752588;80;22694;-53
2021/08/22 11:43:19;;;;;;;0.30;0.30;;;;;;;23.50;39.29;99894.63;1733692;80;21433;-53
2021/08/22 11:45:45;;;;;;;0.95;0.20;;;;;;;23.58;39.71;99892.85;1753896;80;22952;-54
2021/08/22 11:48:16;;;;;;;0.37;0.20;;;;;;;23.68;39.29;99890.05;1753534;80;21070;-54
2021/08/22 11:50:43;;;;;;;0.30;0.20;;;;;;;23.79;39.19;99891.22;1755353;79;20897;-54
2021/08/22 11:53:10;;;;;;;0.30;0.20;;;;;;;23.88;37.39;99884.80;1754495;80;21376;-54
2021/08/22 11:55:38;;;;;;;0.50;0.25;;;;;;;23.92;37.36;99886.19;1756597;80;21361;-53